Here is the Quick Look data you requested

The Data originates at the National Weather Service, and is made available here by the UAlbany Department of Atmospheric and Environmental Sciences

Surface Observations

KABE 251051Z 00000KT 10SM CLR 16/12 A2989 RMK AO2 SLP118 T01560122=
KAFJ 251056Z AUTO 26003KT 9SM CLR 16/16 A2992 RMK AO2 SLP123 T01610156=
KAGC 251053Z 17006KT 8SM SCT033 18/16 A2988 RMK AO2 SLP115 T01830161=
KAOO 251053Z AUTO 17003KT 8SM CLR 15/13 A2990 RMK AO2 SLP116 T01500128=
KAVP 251054Z 09004KT 9SM CLR 14/09 A2989 RMK AO2 SLP115 T01440089=
KBFD 251053Z AUTO 12003KT 10SM CLR 11/09 A2989 RMK AO2 SLP112 T01110089=
KBTP 251056Z AUTO 00000KT 10SM CLR 16/14 A2989 RMK AO2 SLP119 T01560144 $=
KBVI 251055Z AUTO 00000KT 10SM CLR 18/15 A2988 RMK AO2 T01750145=
KCXY 251056Z 00000KT 10SM CLR 19/14 A2987 RMK AO2 SLP113 T01890144=
KDUJ 251053Z AUTO 00000KT 10SM CLR 14/09 A2989 RMK AO2 SLP111 T01390089=
KDYL 251054Z AUTO 04005KT 10SM CLR 17/12 A2988 RMK AO2 SLP112 T01720117 $=
KERI 251051Z 17012KT 10SM FEW090 19/08 A2980 RMK AO2 SLP086 T01890083=
KFIG 251054Z AUTO 00000KT 10SM CLR 11/09 A2991 RMK AO2 SLP120 T01110089=
KFKL 251056Z AUTO 20007KT 10SM CLR 15/11 A2988 RMK AO2 SLP112 T01500106=
KGKJ 251053Z AUTO 18005KT 10SM CLR 17/10 A2984 RMK AO2 SLP098 T01720100=
KIDI 251055Z AUTO 00000KT 10SM CLR 15/15 A2993 RMK A01=
KIPT 251054Z 00000KT 10SM CLR 13/11 A2988 RMK AO2 SLP116 T01330111=
KJST 251054Z AUTO 24005KT 7SM CLR 14/13 A2993 RMK AO2 SLP122 T01440128=
KLBE 251047Z 00000KT 10SM CLR 16/15 A2990=
KLNS 251053Z 00000KT 8SM CLR 17/15 A2987 RMK AO2 SLP112 T01670150=
KMDT 251056Z 00000KT 10SM BKN250 18/16 A2986 RMK AO2 SLP112 T01780156=
KMPO 251053Z AUTO 00000KT 10SM CLR 12/09 A2992 RMK AO2 SLP124 T01170094 $=
KMUI 251055Z AUTO 00000KT 10SM CLR 17/13 A2986 RMK AO2 SLP112 T01700129=
KPHL 251054Z 00000KT 10SM SCT250 BKN300 20/18 A2986 RMK AO2 SLP111 T02000178 $=
KPIT 251051Z 17004KT 10SM FEW250 17/15 A2988 RMK AO2 SLP115 T01720150=
KPNE 251054Z 03005KT 10SM CLR 19/12 A2988 RMK AO2 SLP116 T01890122=
KPTW 251054Z AUTO 00000KT 10SM CLR 17/13 A2989 RMK AO2 SLP115 T01670133=
KRDG 251054Z 00000KT 8SM CLR 17/13 A2987 RMK AO2 SLP116 T01720133=
KSEG 251053Z AUTO 32003KT 10SM CLR 14/13 A2989 RMK AO2 SLP117 T01440133=
KTHV 251053Z AUTO 00000KT 9SM CLR 17/16 A2987 RMK AO2 SLP112 T01670156=
KUNV 251053Z 00000KT 10SM CLR 13/12 A2989=